sensor_id;sensor_type;location;lat;lon;timestamp;P1;durP1;ratioP1;P2;durP2;ratioP2
13797;SDS011;6970;51.340;3.240;2022-12-29T00:00:13;4.80;;;1.27;;
13797;SDS011;6970;51.340;3.240;2022-12-29T00:07:44;2.40;;;1.23;;
13797;SDS011;6970;51.340;3.240;2022-12-29T00:10:11;1.93;;;1.00;;
13797;SDS011;6970;51.340;3.240;2022-12-29T00:12:38;1.73;;;0.97;;
13797;SDS011;6970;51.340;3.240;2022-12-29T00:15:25;4.00;;;1.40;;
13797;SDS011;6970;51.340;3.240;2022-12-29T00:18:06;1.97;;;1.13;;
13797;SDS011;6970;51.340;3.240;2022-12-29T00:20:38;1.30;;;1.20;;
13797;SDS011;6970;51.340;3.240;2022-12-29T00:23:35;2.00;;;1.10;;
13797;SDS011;6970;51.340;3.240;2022-12-29T00:26:27;4.27;;;0.90;;
13797;SDS011;6970;51.340;3.240;2022-12-29T00:29:12;1.67;;;0.50;;
13797;SDS011;6970;51.340;3.240;2022-12-29T00:34:49;1.80;;;0.63;;
13797;SDS011;6970;51.340;3.240;2022-12-29T00:37:43;1.37;;;0.60;;
13797;SDS011;6970;51.340;3.240;2022-12-29T00:43:22;5.00;;;1.10;;
13797;SDS011;6970;51.340;3.240;2022-12-29T00:48:45;3.53;;;0.63;;
13797;SDS011;6970;51.340;3.240;2022-12-29T00:54:00;4.07;;;0.87;;
13797;SDS011;6970;51.340;3.240;2022-12-29T00:56:27;5.07;;;1.27;;
13797;SDS011;6970;51.340;3.240;2022-12-29T00:59:05;6.93;;;1.33;;
13797;SDS011;6970;51.340;3.240;2022-12-29T01:01:36;4.10;;;1.07;;
13797;SDS011;6970;51.340;3.240;2022-12-29T01:06:36;7.70;;;1.57;;
13797;SDS011;6970;51.340;3.240;2022-12-29T01:09:04;4.97;;;1.13;;
13797;SDS011;6970;51.340;3.240;2022-12-29T01:14:22;2.53;;;0.90;;
13797;SDS011;6970;51.340;3.240;2022-12-29T01:16:50;3.30;;;1.10;;
13797;SDS011;6970;51.340;3.240;2022-12-29T01:19:21;4.03;;;1.03;;
13797;SDS011;6970;51.340;3.240;2022-12-29T01:21:50;5.00;;;1.17;;
13797;SDS011;6970;51.340;3.240;2022-12-29T01:24:19;2.77;;;0.93;;
13797;SDS011;6970;51.340;3.240;2022-12-29T01:26:48;5.47;;;1.20;;
13797;SDS011;6970;51.340;3.240;2022-12-29T01:29:15;3.60;;;1.00;;
13797;SDS011;6970;51.340;3.240;2022-12-29T01:31:45;6.87;;;1.60;;
13797;SDS011;6970;51.340;3.240;2022-12-29T01:34:12;4.77;;;1.00;;
13797;SDS011;6970;51.340;3.240;2022-12-29T01:36:39;6.97;;;1.10;;
13797;SDS011;6970;51.340;3.240;2022-12-29T01:39:10;6.43;;;1.27;;
13797;SDS011;6970;51.340;3.240;2022-12-29T01:41:36;6.03;;;1.30;;
13797;SDS011;6970;51.340;3.240;2022-12-29T01:44:52;6.80;;;1.30;;
13797;SDS011;6970;51.340;3.240;2022-12-29T01:47:10;5.13;;;1.40;;
13797;SDS011;6970;51.340;3.240;2022-12-29T01:49:38;5.03;;;1.03;;
13797;SDS011;6970;51.340;3.240;2022-12-29T01:52:07;4.23;;;1.30;;
13797;SDS011;6970;51.340;3.240;2022-12-29T01:57:08;4.37;;;1.03;;
13797;SDS011;6970;51.340;3.240;2022-12-29T01:59:43;3.70;;;1.07;;
13797;SDS011;6970;51.340;3.240;2022-12-29T02:02:18;2.87;;;1.00;;
13797;SDS011;6970;51.340;3.240;2022-12-29T02:07:19;2.83;;;0.90;;
13797;SDS011;6970;51.340;3.240;2022-12-29T02:09:50;5.40;;;1.00;;
13797;SDS011;6970;51.340;3.240;2022-12-29T02:12:23;5.47;;;1.53;;
13797;SDS011;6970;51.340;3.240;2022-12-29T02:14:54;10.20;;;1.60;;
13797;SDS011;6970;51.340;3.240;2022-12-29T02:27:01;5.93;;;1.37;;
13797;SDS011;6970;51.340;3.240;2022-12-29T02:41:15;5.80;;;1.27;;
13797;SDS011;6970;51.340;3.240;2022-12-29T02:44:14;5.43;;;2.10;;
13797;SDS011;6970;51.340;3.240;2022-12-29T02:52:31;10.23;;;1.70;;
13797;SDS011;6970;51.340;3.240;2022-12-29T02:55:05;6.57;;;1.57;;
13797;SDS011;6970;51.340;3.240;2022-12-29T02:57:34;6.73;;;1.70;;
13797;SDS011;6970;51.340;3.240;2022-12-29T03:00:09;6.07;;;1.50;;
13797;SDS011;6970;51.340;3.240;2022-12-29T03:02:59;9.17;;;1.70;;
13797;SDS011;6970;51.340;3.240;2022-12-29T03:11:27;7.37;;;1.60;;
13797;SDS011;6970;51.340;3.240;2022-12-29T03:14:23;7.60;;;1.50;;
13797;SDS011;6970;51.340;3.240;2022-12-29T03:19:56;4.40;;;1.77;;
13797;SDS011;6970;51.340;3.240;2022-12-29T03:22:31;9.07;;;1.50;;
13797;SDS011;6970;51.340;3.240;2022-12-29T03:25:05;11.37;;;2.07;;
13797;SDS011;6970;51.340;3.240;2022-12-29T03:27:41;15.20;;;2.30;;
13797;SDS011;6970;51.340;3.240;2022-12-29T03:30:14;8.63;;;2.43;;
13797;SDS011;6970;51.340;3.240;2022-12-29T03:32:54;9.53;;;2.60;;
13797;SDS011;6970;51.340;3.240;2022-12-29T03:35:27;11.97;;;2.40;;
13797;SDS011;6970;51.340;3.240;2022-12-29T03:37:59;11.00;;;2.37;;
13797;SDS011;6970;51.340;3.240;2022-12-29T03:43:17;11.70;;;2.23;;
13797;SDS011;6970;51.340;3.240;2022-12-29T03:45:46;11.37;;;2.63;;
13797;SDS011;6970;51.340;3.240;2022-12-29T03:48:14;8.70;;;2.13;;
13797;SDS011;6970;51.340;3.240;2022-12-29T03:50:44;14.93;;;3.30;;
13797;SDS011;6970;51.340;3.240;2022-12-29T04:00:46;15.93;;;3.10;;
13797;SDS011;6970;51.340;3.240;2022-12-29T04:03:15;12.70;;;2.67;;
13797;SDS011;6970;51.340;3.240;2022-12-29T04:05:45;20.83;;;3.30;;
13797;SDS011;6970;51.340;3.240;2022-12-29T04:08:15;11.00;;;2.80;;
13797;SDS011;6970;51.340;3.240;2022-12-29T04:10:44;11.20;;;2.30;;
13797;SDS011;6970;51.340;3.240;2022-12-29T04:13:14;16.30;;;3.30;;
13797;SDS011;6970;51.340;3.240;2022-12-29T04:15:43;14.27;;;2.67;;
13797;SDS011;6970;51.340;3.240;2022-12-29T04:18:14;14.43;;;2.30;;
13797;SDS011;6970;51.340;3.240;2022-12-29T04:26:04;8.43;;;2.70;;
13797;SDS011;6970;51.340;3.240;2022-12-29T04:28:35;8.87;;;1.97;;
13797;SDS011;6970;51.340;3.240;2022-12-29T04:31:03;8.77;;;2.20;;
13797;SDS011;6970;51.340;3.240;2022-12-29T04:36:02;15.37;;;2.77;;
13797;SDS011;6970;51.340;3.240;2022-12-29T04:38:32;12.17;;;2.23;;
13797;SDS011;6970;51.340;3.240;2022-12-29T04:43:31;5.87;;;2.03;;
13797;SDS011;6970;51.340;3.240;2022-12-29T04:48:31;10.90;;;2.47;;
13797;SDS011;6970;51.340;3.240;2022-12-29T04:51:01;9.00;;;2.10;;
13797;SDS011;6970;51.340;3.240;2022-12-29T04:53:29;9.30;;;2.07;;
13797;SDS011;6970;51.340;3.240;2022-12-29T04:55:59;11.97;;;2.67;;
13797;SDS011;6970;51.340;3.240;2022-12-29T04:58:27;11.23;;;2.53;;
13797;SDS011;6970;51.340;3.240;2022-12-29T05:00:56;8.23;;;1.93;;
13797;SDS011;6970;51.340;3.240;2022-12-29T05:03:31;13.10;;;2.17;;
13797;SDS011;6970;51.340;3.240;2022-12-29T05:06:04;9.77;;;2.33;;
13797;SDS011;6970;51.340;3.240;2022-12-29T05:08:33;12.97;;;2.17;;
13797;SDS011;6970;51.340;3.240;2022-12-29T05:11:00;17.73;;;2.97;;
13797;SDS011;6970;51.340;3.240;2022-12-29T05:13:30;13.20;;;2.33;;
13797;SDS011;6970;51.340;3.240;2022-12-29T05:16:01;13.63;;;2.80;;
13797;SDS011;6970;51.340;3.240;2022-12-29T05:18:31;14.20;;;2.80;;
13797;SDS011;6970;51.340;3.240;2022-12-29T05:20:59;10.90;;;2.50;;
13797;SDS011;6970;51.340;3.240;2022-12-29T05:23:27;14.57;;;2.70;;
13797;SDS011;6970;51.340;3.240;2022-12-29T05:25:54;8.03;;;2.43;;
13797;SDS011;6970;51.340;3.240;2022-12-29T05:28:23;17.30;;;2.97;;
13797;SDS011;6970;51.340;3.240;2022-12-29T05:30:50;11.03;;;3.50;;
13797;SDS011;6970;51.340;3.240;2022-12-29T05:33:18;13.77;;;2.83;;
13797;SDS011;6970;51.340;3.240;2022-12-29T05:35:48;9.73;;;2.53;;
13797;SDS011;6970;51.340;3.240;2022-12-29T05:38:16;10.70;;;2.87;;
13797;SDS011;6970;51.340;3.240;2022-12-29T05:40:43;10.77;;;2.70;;
13797;SDS011;6970;51.340;3.240;2022-12-29T05:43:16;11.13;;;2.53;;
13797;SDS011;6970;51.340;3.240;2022-12-29T05:48:18;12.50;;;2.33;;
13797;SDS011;6970;51.340;3.240;2022-12-29T05:50:48;12.30;;;3.07;;
13797;SDS011;6970;51.340;3.240;2022-12-29T05:53:18;15.97;;;3.00;;
13797;SDS011;6970;51.340;3.240;2022-12-29T05:55:48;12.20;;;2.43;;
13797;SDS011;6970;51.340;3.240;2022-12-29T05:58:17;13.87;;;3.63;;
13797;SDS011;6970;51.340;3.240;2022-12-29T06:00:46;14.37;;;3.23;;
13797;SDS011;6970;51.340;3.240;2022-12-29T06:03:14;10.23;;;2.57;;
13797;SDS011;6970;51.340;3.240;2022-12-29T06:05:44;11.53;;;2.60;;
13797;SDS011;6970;51.340;3.240;2022-12-29T06:08:12;10.83;;;2.60;;
13797;SDS011;6970;51.340;3.240;2022-12-29T06:10:42;12.53;;;2.53;;
13797;SDS011;6970;51.340;3.240;2022-12-29T06:15:43;17.17;;;2.93;;
13797;SDS011;6970;51.340;3.240;2022-12-29T06:18:12;12.40;;;3.00;;
13797;SDS011;6970;51.340;3.240;2022-12-29T06:20:48;14.87;;;3.73;;
13797;SDS011;6970;51.340;3.240;2022-12-29T06:23:16;15.43;;;3.10;;
13797;SDS011;6970;51.340;3.240;2022-12-29T06:25:47;24.13;;;5.20;;
13797;SDS011;6970;51.340;3.240;2022-12-29T06:28:15;14.70;;;3.00;;
13797;SDS011;6970;51.340;3.240;2022-12-29T06:30:44;15.03;;;3.17;;
13797;SDS011;6970;51.340;3.240;2022-12-29T06:35:43;13.80;;;3.10;;
13797;SDS011;6970;51.340;3.240;2022-12-29T06:38:14;18.73;;;3.87;;
13797;SDS011;6970;51.340;3.240;2022-12-29T06:43:11;17.23;;;3.10;;
13797;SDS011;6970;51.340;3.240;2022-12-29T06:48:12;12.70;;;3.33;;
13797;SDS011;6970;51.340;3.240;2022-12-29T06:53:12;14.50;;;3.27;;
13797;SDS011;6970;51.340;3.240;2022-12-29T06:55:42;17.57;;;3.90;;
13797;SDS011;6970;51.340;3.240;2022-12-29T06:58:10;13.70;;;3.07;;
13797;SDS011;6970;51.340;3.240;2022-12-29T07:00:38;14.23;;;3.03;;
13797;SDS011;6970;51.340;3.240;2022-12-29T07:03:08;10.63;;;3.03;;
13797;SDS011;6970;51.340;3.240;2022-12-29T07:05:36;13.97;;;3.40;;
13797;SDS011;6970;51.340;3.240;2022-12-29T07:10:36;13.17;;;2.77;;
13797;SDS011;6970;51.340;3.240;2022-12-29T07:18:07;15.03;;;2.97;;
13797;SDS011;6970;51.340;3.240;2022-12-29T07:20:35;15.97;;;3.90;;
13797;SDS011;6970;51.340;3.240;2022-12-29T07:23:04;14.07;;;2.63;;
13797;SDS011;6970;51.340;3.240;2022-12-29T07:25:34;19.53;;;3.67;;
13797;SDS011;6970;51.340;3.240;2022-12-29T07:28:05;17.57;;;3.13;;
13797;SDS011;6970;51.340;3.240;2022-12-29T07:30:38;13.10;;;3.40;;
13797;SDS011;6970;51.340;3.240;2022-12-29T07:33:07;14.87;;;3.13;;
13797;SDS011;6970;51.340;3.240;2022-12-29T07:35:35;16.30;;;3.73;;
13797;SDS011;6970;51.340;3.240;2022-12-29T07:38:02;12.87;;;2.70;;
13797;SDS011;6970;51.340;3.240;2022-12-29T07:40:30;18.10;;;3.83;;
13797;SDS011;6970;51.340;3.240;2022-12-29T07:45:28;15.50;;;3.33;;
13797;SDS011;6970;51.340;3.240;2022-12-29T07:50:25;22.00;;;3.97;;
13797;SDS011;6970;51.340;3.240;2022-12-29T07:52:52;13.80;;;3.07;;
13797;SDS011;6970;51.340;3.240;2022-12-29T07:55:21;13.97;;;2.83;;
13797;SDS011;6970;51.340;3.240;2022-12-29T07:57:49;16.53;;;3.50;;
13797;SDS011;6970;51.340;3.240;2022-12-29T08:00:19;17.13;;;3.67;;
13797;SDS011;6970;51.340;3.240;2022-12-29T08:02:47;11.50;;;3.17;;
13797;SDS011;6970;51.340;3.240;2022-12-29T08:05:14;14.93;;;3.17;;
13797;SDS011;6970;51.340;3.240;2022-12-29T08:07:45;17.37;;;3.77;;
13797;SDS011;6970;51.340;3.240;2022-12-29T08:10:13;12.70;;;3.37;;
13797;SDS011;6970;51.340;3.240;2022-12-29T08:12:42;14.20;;;3.30;;
13797;SDS011;6970;51.340;3.240;2022-12-29T08:15:11;12.47;;;3.10;;
13797;SDS011;6970;51.340;3.240;2022-12-29T08:17:39;11.87;;;3.27;;
13797;SDS011;6970;51.340;3.240;2022-12-29T08:20:06;15.57;;;3.03;;
13797;SDS011;6970;51.340;3.240;2022-12-29T08:22:35;12.53;;;2.43;;
13797;SDS011;6970;51.340;3.240;2022-12-29T08:25:02;13.30;;;3.03;;
13797;SDS011;6970;51.340;3.240;2022-12-29T08:27:30;20.27;;;3.37;;
13797;SDS011;6970;51.340;3.240;2022-12-29T08:29:57;13.00;;;3.10;;
13797;SDS011;6970;51.340;3.240;2022-12-29T08:32:27;12.60;;;3.53;;
13797;SDS011;6970;51.340;3.240;2022-12-29T08:34:54;13.57;;;2.83;;
13797;SDS011;6970;51.340;3.240;2022-12-29T08:37:22;21.93;;;4.63;;
13797;SDS011;6970;51.340;3.240;2022-12-29T08:39:58;19.03;;;3.97;;
13797;SDS011;6970;51.340;3.240;2022-12-29T08:42:26;11.67;;;3.23;;
13797;SDS011;6970;51.340;3.240;2022-12-29T08:44:57;21.63;;;4.20;;
13797;SDS011;6970;51.340;3.240;2022-12-29T08:47:25;16.73;;;3.60;;
13797;SDS011;6970;51.340;3.240;2022-12-29T08:49:54;18.30;;;3.83;;
13797;SDS011;6970;51.340;3.240;2022-12-29T08:52:22;12.83;;;3.30;;
13797;SDS011;6970;51.340;3.240;2022-12-29T08:54:49;21.50;;;4.47;;
13797;SDS011;6970;51.340;3.240;2022-12-29T08:57:16;19.67;;;4.17;;
13797;SDS011;6970;51.340;3.240;2022-12-29T08:59:46;24.70;;;4.33;;
13797;SDS011;6970;51.340;3.240;2022-12-29T09:02:17;20.00;;;3.83;;
13797;SDS011;6970;51.340;3.240;2022-12-29T09:04:50;23.23;;;4.33;;
13797;SDS011;6970;51.340;3.240;2022-12-29T09:07:17;17.60;;;3.97;;
13797;SDS011;6970;51.340;3.240;2022-12-29T09:12:15;22.70;;;4.93;;
13797;SDS011;6970;51.340;3.240;2022-12-29T09:14:48;20.67;;;4.13;;
13797;SDS011;6970;51.340;3.240;2022-12-29T09:17:21;19.33;;;4.30;;
13797;SDS011;6970;51.340;3.240;2022-12-29T09:20:06;21.83;;;4.50;;
13797;SDS011;6970;51.340;3.240;2022-12-29T09:22:36;23.27;;;4.77;;
13797;SDS011;6970;51.340;3.240;2022-12-29T09:25:03;26.30;;;4.83;;
13797;SDS011;6970;51.340;3.240;2022-12-29T09:27:30;23.73;;;4.40;;
13797;SDS011;6970;51.340;3.240;2022-12-29T09:30:01;24.83;;;4.50;;
13797;SDS011;6970;51.340;3.240;2022-12-29T09:32:29;15.70;;;3.97;;
13797;SDS011;6970;51.340;3.240;2022-12-29T09:35:00;12.30;;;3.67;;
13797;SDS011;6970;51.340;3.240;2022-12-29T09:40:04;15.00;;;3.83;;
13797;SDS011;6970;51.340;3.240;2022-12-29T09:45:16;15.97;;;4.13;;
13797;SDS011;6970;51.340;3.240;2022-12-29T09:47:54;11.23;;;3.00;;
13797;SDS011;6970;51.340;3.240;2022-12-29T09:50:30;12.47;;;3.33;;
13797;SDS011;6970;51.340;3.240;2022-12-29T09:55:50;12.90;;;3.43;;
13797;SDS011;6970;51.340;3.240;2022-12-29T09:58:30;16.47;;;3.70;;
13797;SDS011;6970;51.340;3.240;2022-12-29T10:04:21;15.13;;;4.47;;
13797;SDS011;6970;51.340;3.240;2022-12-29T10:07:00;17.07;;;3.80;;
13797;SDS011;6970;51.340;3.240;2022-12-29T10:18:02;15.57;;;3.80;;
13797;SDS011;6970;51.340;3.240;2022-12-29T10:23:33;14.50;;;4.07;;
13797;SDS011;6970;51.340;3.240;2022-12-29T10:26:12;22.43;;;3.80;;
13797;SDS011;6970;51.340;3.240;2022-12-29T10:28:55;16.83;;;3.77;;
13797;SDS011;6970;51.340;3.240;2022-12-29T10:31:40;17.43;;;3.50;;
13797;SDS011;6970;51.340;3.240;2022-12-29T10:43:45;16.13;;;3.73;;
13797;SDS011;6970;51.340;3.240;2022-12-29T10:46:30;17.13;;;3.70;;
13797;SDS011;6970;51.340;3.240;2022-12-29T10:49:00;12.43;;;3.33;;
13797;SDS011;6970;51.340;3.240;2022-12-29T10:51:30;14.87;;;4.37;;
13797;SDS011;6970;51.340;3.240;2022-12-29T10:54:05;20.67;;;4.87;;
13797;SDS011;6970;51.340;3.240;2022-12-29T10:59:14;15.20;;;4.17;;
13797;SDS011;6970;51.340;3.240;2022-12-29T11:07:18;16.27;;;4.23;;
13797;SDS011;6970;51.340;3.240;2022-12-29T11:09:53;15.97;;;3.23;;
13797;SDS011;6970;51.340;3.240;2022-12-29T11:12:30;12.37;;;3.03;;
13797;SDS011;6970;51.340;3.240;2022-12-29T11:15:14;13.60;;;3.33;;
13797;SDS011;6970;51.340;3.240;2022-12-29T11:17:57;11.13;;;2.53;;
13797;SDS011;6970;51.340;3.240;2022-12-29T11:20:33;13.50;;;3.20;;
13797;SDS011;6970;51.340;3.240;2022-12-29T11:23:21;13.20;;;2.77;;
13797;SDS011;6970;51.340;3.240;2022-12-29T11:28:38;12.13;;;2.70;;
13797;SDS011;6970;51.340;3.240;2022-12-29T11:33:41;9.73;;;2.80;;
13797;SDS011;6970;51.340;3.240;2022-12-29T11:36:19;12.40;;;2.20;;
13797;SDS011;6970;51.340;3.240;2022-12-29T11:38:49;7.87;;;2.00;;
13797;SDS011;6970;51.340;3.240;2022-12-29T11:41:27;8.57;;;2.27;;
13797;SDS011;6970;51.340;3.240;2022-12-29T11:44:00;9.53;;;3.27;;
13797;SDS011;6970;51.340;3.240;2022-12-29T11:46:32;8.30;;;2.10;;
13797;SDS011;6970;51.340;3.240;2022-12-29T11:49:20;7.87;;;1.63;;
13797;SDS011;6970;51.340;3.240;2022-12-29T11:51:52;12.33;;;2.60;;
13797;SDS011;6970;51.340;3.240;2022-12-29T11:54:33;9.40;;;2.23;;
13797;SDS011;6970;51.340;3.240;2022-12-29T11:57:11;8.43;;;1.60;;
13797;SDS011;6970;51.340;3.240;2022-12-29T11:59:51;9.30;;;2.00;;
13797;SDS011;6970;51.340;3.240;2022-12-29T12:02:40;10.50;;;1.83;;
13797;SDS011;6970;51.340;3.240;2022-12-29T12:11:15;10.47;;;2.23;;
13797;SDS011;6970;51.340;3.240;2022-12-29T12:17:40;7.37;;;1.47;;
13797;SDS011;6970;51.340;3.240;2022-12-29T12:26:01;3.63;;;1.50;;
13797;SDS011;6970;51.340;3.240;2022-12-29T12:42:57;6.30;;;1.77;;
13797;SDS011;6970;51.340;3.240;2022-12-29T13:11:12;8.87;;;1.83;;
13797;SDS011;6970;51.340;3.240;2022-12-29T13:30:57;8.63;;;2.03;;
13797;SDS011;6970;51.340;3.240;2022-12-29T13:36:35;6.17;;;1.80;;
13797;SDS011;6970;51.340;3.240;2022-12-29T13:39:18;8.77;;;1.97;;
13797;SDS011;6970;51.340;3.240;2022-12-29T13:41:54;4.97;;;1.50;;
13797;SDS011;6970;51.340;3.240;2022-12-29T13:49:43;5.23;;;1.00;;
13797;SDS011;6970;51.340;3.240;2022-12-29T13:52:15;6.53;;;1.10;;
13797;SDS011;6970;51.340;3.240;2022-12-29T14:01:22;2.60;;;1.30;;
13797;SDS011;6970;51.340;3.240;2022-12-29T14:04:17;6.97;;;1.40;;
13797;SDS011;6970;51.340;3.240;2022-12-29T14:15:03;9.83;;;1.60;;
13797;SDS011;6970;51.340;3.240;2022-12-29T14:17:40;8.73;;;2.13;;
13797;SDS011;6970;51.340;3.240;2022-12-29T14:20:20;7.33;;;1.73;;
13797;SDS011;6970;51.340;3.240;2022-12-29T14:23:25;5.57;;;1.70;;
13797;SDS011;6970;51.340;3.240;2022-12-29T14:31:04;9.27;;;1.93;;
13797;SDS011;6970;51.340;3.240;2022-12-29T14:33:33;10.43;;;2.10;;
13797;SDS011;6970;51.340;3.240;2022-12-29T14:39:25;10.53;;;2.33;;
13797;SDS011;6970;51.340;3.240;2022-12-29T14:47:38;5.80;;;1.33;;
13797;SDS011;6970;51.340;3.240;2022-12-29T14:52:55;5.83;;;2.00;;
13797;SDS011;6970;51.340;3.240;2022-12-29T14:55:53;9.00;;;2.33;;
13797;SDS011;6970;51.340;3.240;2022-12-29T15:03:50;6.23;;;1.47;;
13797;SDS011;6970;51.340;3.240;2022-12-29T15:06:21;8.40;;;2.50;;
13797;SDS011;6970;51.340;3.240;2022-12-29T15:09:03;4.60;;;1.50;;
13797;SDS011;6970;51.340;3.240;2022-12-29T15:14:54;10.57;;;1.50;;
13797;SDS011;6970;51.340;3.240;2022-12-29T15:19:59;10.07;;;2.20;;
13797;SDS011;6970;51.340;3.240;2022-12-29T15:22:44;10.73;;;2.10;;
13797;SDS011;6970;51.340;3.240;2022-12-29T15:25:23;16.70;;;2.60;;
13797;SDS011;6970;51.340;3.240;2022-12-29T15:28:02;7.37;;;2.23;;
13797;SDS011;6970;51.340;3.240;2022-12-29T15:30:32;8.30;;;2.20;;
13797;SDS011;6970;51.340;3.240;2022-12-29T15:32:59;10.00;;;2.10;;
13797;SDS011;6970;51.340;3.240;2022-12-29T15:35:34;6.40;;;1.87;;
13797;SDS011;6970;51.340;3.240;2022-12-29T15:38:20;6.93;;;2.03;;
13797;SDS011;6970;51.340;3.240;2022-12-29T15:46:37;6.03;;;1.70;;
13797;SDS011;6970;51.340;3.240;2022-12-29T15:49:05;13.00;;;1.80;;
13797;SDS011;6970;51.340;3.240;2022-12-29T15:51:37;11.43;;;2.33;;
13797;SDS011;6970;51.340;3.240;2022-12-29T15:54:14;5.17;;;1.50;;
13797;SDS011;6970;51.340;3.240;2022-12-29T15:56:46;9.33;;;2.40;;
13797;SDS011;6970;51.340;3.240;2022-12-29T15:59:27;11.17;;;2.40;;
13797;SDS011;6970;51.340;3.240;2022-12-29T16:01:57;10.03;;;2.10;;
13797;SDS011;6970;51.340;3.240;2022-12-29T16:04:30;8.17;;;1.90;;
13797;SDS011;6970;51.340;3.240;2022-12-29T16:07:31;10.60;;;1.87;;
13797;SDS011;6970;51.340;3.240;2022-12-29T16:10:54;8.80;;;1.70;;
13797;SDS011;6970;51.340;3.240;2022-12-29T16:15:38;10.33;;;2.43;;
13797;SDS011;6970;51.340;3.240;2022-12-29T16:18:17;5.13;;;1.60;;
13797;SDS011;6970;51.340;3.240;2022-12-29T16:20:54;11.93;;;2.40;;
13797;SDS011;6970;51.340;3.240;2022-12-29T16:23:25;9.27;;;2.30;;
13797;SDS011;6970;51.340;3.240;2022-12-29T16:25:55;7.63;;;2.00;;
13797;SDS011;6970;51.340;3.240;2022-12-29T16:28:25;7.60;;;1.80;;
13797;SDS011;6970;51.340;3.240;2022-12-29T16:31:04;13.70;;;2.30;;
13797;SDS011;6970;51.340;3.240;2022-12-29T16:33:54;8.40;;;2.33;;
13797;SDS011;6970;51.340;3.240;2022-12-29T16:36:34;8.10;;;2.77;;
13797;SDS011;6970;51.340;3.240;2022-12-29T16:53:20;8.20;;;2.10;;
13797;SDS011;6970;51.340;3.240;2022-12-29T16:55:54;13.40;;;3.80;;
13797;SDS011;6970;51.340;3.240;2022-12-29T16:58:25;13.17;;;2.73;;
13797;SDS011;6970;51.340;3.240;2022-12-29T17:00:56;14.70;;;2.97;;
13797;SDS011;6970;51.340;3.240;2022-12-29T17:03:28;16.23;;;2.83;;
13797;SDS011;6970;51.340;3.240;2022-12-29T17:06:02;10.57;;;2.20;;
13797;SDS011;6970;51.340;3.240;2022-12-29T17:08:37;11.23;;;2.97;;
13797;SDS011;6970;51.340;3.240;2022-12-29T17:16:52;14.77;;;3.27;;
13797;SDS011;6970;51.340;3.240;2022-12-29T17:19:30;16.23;;;3.80;;
13797;SDS011;6970;51.340;3.240;2022-12-29T17:22:01;14.33;;;2.97;;
13797;SDS011;6970;51.340;3.240;2022-12-29T17:24:31;13.13;;;3.23;;
13797;SDS011;6970;51.340;3.240;2022-12-29T17:26:58;14.37;;;3.10;;
13797;SDS011;6970;51.340;3.240;2022-12-29T17:37:28;21.40;;;3.63;;
13797;SDS011;6970;51.340;3.240;2022-12-29T17:39:56;17.70;;;3.23;;
13797;SDS011;6970;51.340;3.240;2022-12-29T17:42:25;16.27;;;4.03;;
13797;SDS011;6970;51.340;3.240;2022-12-29T17:49:55;13.93;;;3.57;;
13797;SDS011;6970;51.340;3.240;2022-12-29T17:54:56;18.73;;;3.40;;
13797;SDS011;6970;51.340;3.240;2022-12-29T17:57:26;14.23;;;3.00;;
13797;SDS011;6970;51.340;3.240;2022-12-29T18:02:30;15.87;;;3.40;;
13797;SDS011;6970;51.340;3.240;2022-12-29T18:05:01;20.43;;;3.73;;
13797;SDS011;6970;51.340;3.240;2022-12-29T18:10:04;14.77;;;3.27;;
13797;SDS011;6970;51.340;3.240;2022-12-29T18:12:37;17.57;;;3.97;;
13797;SDS011;6970;51.340;3.240;2022-12-29T18:17:44;13.67;;;3.80;;
13797;SDS011;6970;51.340;3.240;2022-12-29T18:20:14;10.20;;;2.77;;
13797;SDS011;6970;51.340;3.240;2022-12-29T18:22:42;12.63;;;3.13;;
13797;SDS011;6970;51.340;3.240;2022-12-29T18:25:24;18.40;;;3.33;;
13797;SDS011;6970;51.340;3.240;2022-12-29T18:28:16;14.53;;;3.30;;
13797;SDS011;6970;51.340;3.240;2022-12-29T18:30:43;19.07;;;4.00;;
13797;SDS011;6970;51.340;3.240;2022-12-29T18:33:14;14.00;;;3.60;;
13797;SDS011;6970;51.340;3.240;2022-12-29T18:36:03;14.63;;;3.10;;
13797;SDS011;6970;51.340;3.240;2022-12-29T18:38:31;14.13;;;3.60;;
13797;SDS011;6970;51.340;3.240;2022-12-29T18:41:01;15.50;;;3.10;;
13797;SDS011;6970;51.340;3.240;2022-12-29T18:43:31;19.53;;;3.73;;
13797;SDS011;6970;51.340;3.240;2022-12-29T18:45:59;16.10;;;3.97;;
13797;SDS011;6970;51.340;3.240;2022-12-29T18:48:29;12.47;;;3.70;;
13797;SDS011;6970;51.340;3.240;2022-12-29T18:53:26;13.53;;;3.80;;
13797;SDS011;6970;51.340;3.240;2022-12-29T18:55:53;17.13;;;3.30;;
13797;SDS011;6970;51.340;3.240;2022-12-29T18:58:23;14.13;;;3.20;;
13797;SDS011;6970;51.340;3.240;2022-12-29T19:01:02;19.77;;;4.20;;
13797;SDS011;6970;51.340;3.240;2022-12-29T19:03:30;14.27;;;2.97;;
13797;SDS011;6970;51.340;3.240;2022-12-29T19:05:57;16.90;;;3.87;;
13797;SDS011;6970;51.340;3.240;2022-12-29T19:08:25;18.23;;;3.20;;
13797;SDS011;6970;51.340;3.240;2022-12-29T19:10:53;14.60;;;3.13;;
13797;SDS011;6970;51.340;3.240;2022-12-29T19:13:21;15.33;;;3.00;;
13797;SDS011;6970;51.340;3.240;2022-12-29T19:15:56;14.70;;;3.23;;
13797;SDS011;6970;51.340;3.240;2022-12-29T19:18:28;14.10;;;3.47;;
13797;SDS011;6970;51.340;3.240;2022-12-29T19:21:12;14.50;;;2.90;;
13797;SDS011;6970;51.340;3.240;2022-12-29T19:23:39;16.27;;;3.17;;
13797;SDS011;6970;51.340;3.240;2022-12-29T19:29:13;21.20;;;3.10;;
13797;SDS011;6970;51.340;3.240;2022-12-29T19:31:43;16.60;;;3.53;;
13797;SDS011;6970;51.340;3.240;2022-12-29T19:34:20;15.27;;;3.60;;
13797;SDS011;6970;51.340;3.240;2022-12-29T19:39:18;13.00;;;2.73;;
13797;SDS011;6970;51.340;3.240;2022-12-29T19:44:16;7.90;;;2.20;;
13797;SDS011;6970;51.340;3.240;2022-12-29T19:49:16;9.97;;;2.60;;
13797;SDS011;6970;51.340;3.240;2022-12-29T19:51:44;16.30;;;3.53;;
13797;SDS011;6970;51.340;3.240;2022-12-29T19:54:13;11.37;;;3.20;;
13797;SDS011;6970;51.340;3.240;2022-12-29T19:56:43;7.83;;;2.67;;
13797;SDS011;6970;51.340;3.240;2022-12-29T19:59:10;9.53;;;3.00;;
13797;SDS011;6970;51.340;3.240;2022-12-29T20:01:40;8.00;;;2.10;;
13797;SDS011;6970;51.340;3.240;2022-12-29T20:04:09;10.57;;;2.60;;
13797;SDS011;6970;51.340;3.240;2022-12-29T20:11:40;8.83;;;2.30;;
13797;SDS011;6970;51.340;3.240;2022-12-29T20:14:09;13.50;;;2.60;;
13797;SDS011;6970;51.340;3.240;2022-12-29T20:16:37;19.53;;;2.83;;
13797;SDS011;6970;51.340;3.240;2022-12-29T20:21:56;14.17;;;3.07;;
13797;SDS011;6970;51.340;3.240;2022-12-29T20:24:27;8.83;;;2.53;;
13797;SDS011;6970;51.340;3.240;2022-12-29T20:26:58;11.43;;;3.03;;
13797;SDS011;6970;51.340;3.240;2022-12-29T20:29:37;11.27;;;3.00;;
13797;SDS011;6970;51.340;3.240;2022-12-29T20:32:10;13.73;;;3.33;;
13797;SDS011;6970;51.340;3.240;2022-12-29T20:34:47;14.03;;;2.50;;
13797;SDS011;6970;51.340;3.240;2022-12-29T20:37:15;14.27;;;2.67;;
13797;SDS011;6970;51.340;3.240;2022-12-29T20:39:43;12.57;;;3.43;;
13797;SDS011;6970;51.340;3.240;2022-12-29T20:42:11;12.43;;;2.90;;
13797;SDS011;6970;51.340;3.240;2022-12-29T20:44:41;11.67;;;2.70;;
13797;SDS011;6970;51.340;3.240;2022-12-29T20:47:09;10.43;;;2.67;;
13797;SDS011;6970;51.340;3.240;2022-12-29T20:49:37;12.00;;;3.27;;
13797;SDS011;6970;51.340;3.240;2022-12-29T20:54:37;8.00;;;2.50;;
13797;SDS011;6970;51.340;3.240;2022-12-29T20:57:08;6.67;;;2.77;;
13797;SDS011;6970;51.340;3.240;2022-12-29T20:59:46;8.10;;;2.83;;
13797;SDS011;6970;51.340;3.240;2022-12-29T21:02:17;10.23;;;2.17;;
13797;SDS011;6970;51.340;3.240;2022-12-29T21:07:38;9.93;;;2.40;;
13797;SDS011;6970;51.340;3.240;2022-12-29T21:10:09;10.27;;;2.13;;
13797;SDS011;6970;51.340;3.240;2022-12-29T21:12:38;7.43;;;2.03;;
13797;SDS011;6970;51.340;3.240;2022-12-29T21:17:37;9.30;;;2.20;;
13797;SDS011;6970;51.340;3.240;2022-12-29T21:20:04;12.07;;;2.60;;
13797;SDS011;6970;51.340;3.240;2022-12-29T21:22:32;11.60;;;2.37;;
13797;SDS011;6970;51.340;3.240;2022-12-29T21:24:59;10.90;;;2.07;;
13797;SDS011;6970;51.340;3.240;2022-12-29T21:27:26;5.47;;;1.90;;
13797;SDS011;6970;51.340;3.240;2022-12-29T21:29:55;11.70;;;1.73;;